sensor_id;sensor_type;location;lat;lon;timestamp;pressure;altitude;pressure_sealevel;temperature;humidity
69257;BME280;56376;53.356;-1.748;2023-09-30T00:01:09;100291.88;;;10.61;100.00
69257;BME280;56376;53.356;-1.748;2023-09-30T00:03:36;100291.91;;;10.59;100.00
69257;BME280;56376;53.356;-1.748;2023-09-30T00:06:01;100290.22;;;10.57;100.00
69257;BME280;56376;53.356;-1.748;2023-09-30T00:08:27;100277.19;;;10.55;100.00
69257;BME280;56376;53.356;-1.748;2023-09-30T00:10:53;100281.63;;;10.53;100.00
69257;BME280;56376;53.356;-1.748;2023-09-30T00:13:19;100285.09;;;10.52;100.00
69257;BME280;56376;53.356;-1.748;2023-09-30T00:15:45;100286.88;;;10.52;100.00
69257;BME280;56376;53.356;-1.748;2023-09-30T00:18:11;100270.38;;;10.50;100.00
69257;BME280;56376;53.356;-1.748;2023-09-30T00:20:38;100272.16;;;10.48;100.00
69257;BME280;56376;53.356;-1.748;2023-09-30T00:23:04;100279.16;;;10.46;100.00
69257;BME280;56376;53.356;-1.748;2023-09-30T00:25:31;100276.63;;;10.43;100.00
69257;BME280;56376;53.356;-1.748;2023-09-30T00:27:59;100286.16;;;10.45;100.00
69257;BME280;56376;53.356;-1.748;2023-09-30T00:30:24;100282.75;;;10.42;100.00
69257;BME280;56376;53.356;-1.748;2023-09-30T00:32:49;100295.84;;;10.40;100.00
69257;BME280;56376;53.356;-1.748;2023-09-30T00:35:15;100291.47;;;10.40;100.00
69257;BME280;56376;53.356;-1.748;2023-09-30T00:37:41;100295.00;;;10.39;100.00
69257;BME280;56376;53.356;-1.748;2023-09-30T00:40:07;100295.06;;;10.36;100.00
69257;BME280;56376;53.356;-1.748;2023-09-30T00:42:40;100295.94;;;10.35;100.00
69257;BME280;56376;53.356;-1.748;2023-09-30T00:45:07;100295.91;;;10.38;100.00
69257;BME280;56376;53.356;-1.748;2023-09-30T00:47:36;100295.00;;;10.39;100.00
69257;BME280;56376;53.356;-1.748;2023-09-30T00:50:03;100302.84;;;10.38;100.00
69257;BME280;56376;53.356;-1.748;2023-09-30T00:52:33;100300.22;;;10.39;100.00
69257;BME280;56376;53.356;-1.748;2023-09-30T00:54:58;100296.75;;;10.39;100.00
69257;BME280;56376;53.356;-1.748;2023-09-30T00:57:25;100301.06;;;10.40;100.00
69257;BME280;56376;53.356;-1.748;2023-09-30T00:59:51;100299.38;;;10.39;100.00
69257;BME280;56376;53.356;-1.748;2023-09-30T01:02:20;100281.09;;;10.37;100.00
69257;BME280;56376;53.356;-1.748;2023-09-30T01:04:48;100293.31;;;10.37;100.00
69257;BME280;56376;53.356;-1.748;2023-09-30T01:07:16;100289.00;;;10.36;100.00
69257;BME280;56376;53.356;-1.748;2023-09-30T01:09:42;100289.84;;;10.36;100.00
69257;BME280;56376;53.356;-1.748;2023-09-30T01:12:08;100290.69;;;10.38;100.00
69257;BME280;56376;53.356;-1.748;2023-09-30T01:14:34;100290.59;;;10.42;100.00
69257;BME280;56376;53.356;-1.748;2023-09-30T01:17:01;100292.38;;;10.39;100.00
69257;BME280;56376;53.356;-1.748;2023-09-30T01:19:27;100285.47;;;10.37;100.00
69257;BME280;56376;53.356;-1.748;2023-09-30T01:21:54;100273.34;;;10.34;100.00
69257;BME280;56376;53.356;-1.748;2023-09-30T01:24:21;100268.13;;;10.34;100.00
69257;BME280;56376;53.356;-1.748;2023-09-30T01:26:47;100262.91;;;10.34;100.00
69257;BME280;56376;53.356;-1.748;2023-09-30T01:29:13;100255.09;;;10.33;100.00
69257;BME280;56376;53.356;-1.748;2023-09-30T01:31:39;100262.91;;;10.34;100.00
69257;BME280;56376;53.356;-1.748;2023-09-30T01:34:05;100265.50;;;10.34;100.00
69257;BME280;56376;53.356;-1.748;2023-09-30T01:36:31;100266.44;;;10.32;100.00
69257;BME280;56376;53.356;-1.748;2023-09-30T01:38:57;100257.75;;;10.31;100.00
69257;BME280;56376;53.356;-1.748;2023-09-30T01:41:23;100262.00;;;10.35;100.00
69257;BME280;56376;53.356;-1.748;2023-09-30T01:43:49;100264.66;;;10.34;100.00
69257;BME280;56376;53.356;-1.748;2023-09-30T01:46:14;100265.50;;;10.36;100.00
69257;BME280;56376;53.356;-1.748;2023-09-30T01:48:59;100263.72;;;10.36;100.00
69257;BME280;56376;53.356;-1.748;2023-09-30T01:51:24;100274.19;;;10.36;100.00
69257;BME280;56376;53.356;-1.748;2023-09-30T01:53:50;100263.72;;;10.36;100.00
69257;BME280;56376;53.356;-1.748;2023-09-30T01:56:15;100264.66;;;10.34;100.00
69257;BME280;56376;53.356;-1.748;2023-09-30T01:58:43;100261.16;;;10.35;100.00
69257;BME280;56376;53.356;-1.748;2023-09-30T02:01:09;100268.97;;;10.36;100.00
69257;BME280;56376;53.356;-1.748;2023-09-30T02:03:34;100251.53;;;10.37;100.00
69257;BME280;56376;53.356;-1.748;2023-09-30T02:05:59;100255.91;;;10.35;100.00
69257;BME280;56376;53.356;-1.748;2023-09-30T02:08:26;100237.72;;;10.32;100.00
69257;BME280;56376;53.356;-1.748;2023-09-30T02:10:51;100248.16;;;10.33;100.00
69257;BME280;56376;53.356;-1.748;2023-09-30T02:13:17;100245.56;;;10.32;100.00
69257;BME280;56376;53.356;-1.748;2023-09-30T02:15:43;100252.56;;;10.30;100.00
69257;BME280;56376;53.356;-1.748;2023-09-30T02:18:09;100244.78;;;10.28;100.00
69257;BME280;56376;53.356;-1.748;2023-09-30T02:20:35;100236.94;;;10.28;100.00
69257;BME280;56376;53.356;-1.748;2023-09-30T02:23:14;100236.09;;;10.26;100.00
69257;BME280;56376;53.356;-1.748;2023-09-30T02:25:42;100230.00;;;10.26;100.00
69257;BME280;56376;53.356;-1.748;2023-09-30T02:28:08;100232.63;;;10.26;100.00
69257;BME280;56376;53.356;-1.748;2023-09-30T02:30:34;100242.25;;;10.24;100.00
69257;BME280;56376;53.356;-1.748;2023-09-30T02:32:59;100233.59;;;10.20;100.00
69257;BME280;56376;53.356;-1.748;2023-09-30T02:35:25;100243.25;;;10.18;100.00
69257;BME280;56376;53.356;-1.748;2023-09-30T02:37:51;100251.97;;;10.17;100.00
69257;BME280;56376;53.356;-1.748;2023-09-30T02:40:17;100261.56;;;10.16;100.00
69257;BME280;56376;53.356;-1.748;2023-09-30T02:42:43;100267.69;;;10.14;100.00
69257;BME280;56376;53.356;-1.748;2023-09-30T02:45:10;100263.34;;;10.14;100.00
69257;BME280;56376;53.356;-1.748;2023-09-30T02:50:42;100252.13;;;10.09;100.00
69257;BME280;56376;53.356;-1.748;2023-09-30T02:53:10;100244.38;;;10.06;100.00
69257;BME280;56376;53.356;-1.748;2023-09-30T02:55:35;100246.94;;;10.08;100.00
69257;BME280;56376;53.356;-1.748;2023-09-30T02:58:02;100234.88;;;10.04;100.00
69257;BME280;56376;53.356;-1.748;2023-09-30T03:00:27;100237.47;;;10.04;100.00
69257;BME280;56376;53.356;-1.748;2023-09-30T03:02:59;100247.09;;;10.02;100.00
69257;BME280;56376;53.356;-1.748;2023-09-30T03:05:24;100243.72;;;9.98;100.00
69257;BME280;56376;53.356;-1.748;2023-09-30T03:07:50;100241.13;;;9.95;100.00
69257;BME280;56376;53.356;-1.748;2023-09-30T03:10:16;100252.50;;;9.92;100.00
69257;BME280;56376;53.356;-1.748;2023-09-30T03:12:55;100250.81;;;9.90;100.00
69257;BME280;56376;53.356;-1.748;2023-09-30T03:15:22;100253.50;;;9.87;100.00
69257;BME280;56376;53.356;-1.748;2023-09-30T03:18:07;100263.09;;;9.86;100.00
69257;BME280;56376;53.356;-1.748;2023-09-30T03:20:32;100262.34;;;9.81;100.00
69257;BME280;56376;53.356;-1.748;2023-09-30T03:22:58;100262.41;;;9.78;100.00
69257;BME280;56376;53.356;-1.748;2023-09-30T03:25:24;100258.97;;;9.74;100.00
69257;BME280;56376;53.356;-1.748;2023-09-30T03:27:50;100260.81;;;9.71;100.00
69257;BME280;56376;53.356;-1.748;2023-09-30T03:30:16;100263.41;;;9.71;100.00
69257;BME280;56376;53.356;-1.748;2023-09-30T03:32:42;100259.16;;;9.67;100.00
69257;BME280;56376;53.356;-1.748;2023-09-30T03:35:09;100260.91;;;9.65;100.00
69257;BME280;56376;53.356;-1.748;2023-09-30T03:37:47;100265.34;;;9.63;100.00
69257;BME280;56376;53.356;-1.748;2023-09-30T03:40:13;100252.38;;;9.58;100.00
69257;BME280;56376;53.356;-1.748;2023-09-30T03:42:47;100261.09;;;9.57;100.00
69257;BME280;56376;53.356;-1.748;2023-09-30T03:45:14;100274.19;;;9.54;100.00
69257;BME280;56376;53.356;-1.748;2023-09-30T03:47:41;100272.44;;;9.54;100.00
69257;BME280;56376;53.356;-1.748;2023-09-30T03:50:07;100263.81;;;9.52;100.00
69257;BME280;56376;53.356;-1.748;2023-09-30T03:52:41;100259.53;;;9.50;100.00
69257;BME280;56376;53.356;-1.748;2023-09-30T03:55:10;100264.75;;;9.47;100.00
69257;BME280;56376;53.356;-1.748;2023-09-30T03:57:38;100272.63;;;9.45;100.00
69257;BME280;56376;53.356;-1.748;2023-09-30T04:00:04;100276.19;;;9.41;100.00
69257;BME280;56376;53.356;-1.748;2023-09-30T04:02:33;100284.88;;;9.42;100.00
69257;BME280;56376;53.356;-1.748;2023-09-30T04:05:00;100295.34;;;9.39;100.00
69257;BME280;56376;53.356;-1.748;2023-09-30T04:07:29;100299.75;;;9.37;100.00
69257;BME280;56376;53.356;-1.748;2023-09-30T04:09:55;100305.88;;;9.34;100.00
69257;BME280;56376;53.356;-1.748;2023-09-30T04:12:21;100288.59;;;9.30;100.00
69257;BME280;56376;53.356;-1.748;2023-09-30T04:14:49;100288.59;;;9.28;100.00
69257;BME280;56376;53.356;-1.748;2023-09-30T04:17:14;100292.06;;;9.29;100.00
69257;BME280;56376;53.356;-1.748;2023-09-30T04:19:40;100293.81;;;9.28;100.00
69257;BME280;56376;53.356;-1.748;2023-09-30T04:22:05;100289.50;;;9.27;100.00
69257;BME280;56376;53.356;-1.748;2023-09-30T04:24:30;100288.63;;;9.27;100.00
69257;BME280;56376;53.356;-1.748;2023-09-30T04:26:56;100283.47;;;9.24;100.00
69257;BME280;56376;53.356;-1.748;2023-09-30T04:29:27;100292.97;;;9.26;100.00
69257;BME280;56376;53.356;-1.748;2023-09-30T04:31:52;100297.31;;;9.27;100.00
69257;BME280;56376;53.356;-1.748;2023-09-30T04:34:18;100290.34;;;9.28;100.00
69257;BME280;56376;53.356;-1.748;2023-09-30T04:36:43;100280.84;;;9.25;100.00
69257;BME280;56376;53.356;-1.748;2023-09-30T04:39:10;100272.22;;;9.22;100.00
69257;BME280;56376;53.356;-1.748;2023-09-30T04:41:37;100279.16;;;9.21;100.00
69257;BME280;56376;53.356;-1.748;2023-09-30T04:44:06;100279.22;;;9.20;100.00
69257;BME280;56376;53.356;-1.748;2023-09-30T04:46:32;100279.22;;;9.20;100.00
69257;BME280;56376;53.356;-1.748;2023-09-30T04:48:57;100280.94;;;9.19;100.00
69257;BME280;56376;53.356;-1.748;2023-09-30T04:51:23;100269.66;;;9.19;100.00
69257;BME280;56376;53.356;-1.748;2023-09-30T04:53:50;100254.09;;;9.16;100.00
69257;BME280;56376;53.356;-1.748;2023-09-30T04:56:16;100245.41;;;9.15;100.00
69257;BME280;56376;53.356;-1.748;2023-09-30T04:58:41;100236.72;;;9.15;100.00
69257;BME280;56376;53.356;-1.748;2023-09-30T05:01:07;100246.28;;;9.16;100.00
69257;BME280;56376;53.356;-1.748;2023-09-30T05:03:34;100250.66;;;9.14;100.00
69257;BME280;56376;53.356;-1.748;2023-09-30T05:06:00;100248.94;;;9.13;100.00
69257;BME280;56376;53.356;-1.748;2023-09-30T05:08:27;100252.41;;;9.13;100.00
69257;BME280;56376;53.356;-1.748;2023-09-30T05:10:53;100258.53;;;9.10;100.00
69257;BME280;56376;53.356;-1.748;2023-09-30T05:13:20;100249.88;;;9.08;100.00
69257;BME280;56376;53.356;-1.748;2023-09-30T05:15:46;100259.41;;;9.09;100.00
69257;BME280;56376;53.356;-1.748;2023-09-30T05:18:11;100265.53;;;9.07;100.00
69257;BME280;56376;53.356;-1.748;2023-09-30T05:20:37;100281.16;;;9.08;100.00
69257;BME280;56376;53.356;-1.748;2023-09-30T05:23:04;100287.28;;;9.04;100.00
69257;BME280;56376;53.356;-1.748;2023-09-30T05:25:32;100290.81;;;9.03;100.00
69257;BME280;56376;53.356;-1.748;2023-09-30T05:27:57;100296.94;;;9.01;100.00
69257;BME280;56376;53.356;-1.748;2023-09-30T05:30:23;100304.69;;;9.04;100.00
69257;BME280;56376;53.356;-1.748;2023-09-30T05:32:48;100300.38;;;9.01;100.00
69257;BME280;56376;53.356;-1.748;2023-09-30T05:35:14;100290.81;;;9.02;100.00
69257;BME280;56376;53.356;-1.748;2023-09-30T05:38:01;100278.69;;;9.01;100.00
69257;BME280;56376;53.356;-1.748;2023-09-30T05:40:29;100283.97;;;8.98;100.00
69257;BME280;56376;53.356;-1.748;2023-09-30T05:42:57;100271.00;;;8.95;100.00
69257;BME280;56376;53.356;-1.748;2023-09-30T05:45:23;100265.84;;;8.90;100.00
69257;BME280;56376;53.356;-1.748;2023-09-30T05:47:50;100262.41;;;8.88;100.00
69257;BME280;56376;53.356;-1.748;2023-09-30T05:50:18;100263.34;;;8.84;100.00
69257;BME280;56376;53.356;-1.748;2023-09-30T05:52:49;100264.31;;;8.80;100.00
69257;BME280;56376;53.356;-1.748;2023-09-30T05:55:16;100273.88;;;8.78;100.00
69257;BME280;56376;53.356;-1.748;2023-09-30T05:58:00;100272.19;;;8.74;100.00
69257;BME280;56376;53.356;-1.748;2023-09-30T06:00:26;100261.84;;;8.69;100.00
69257;BME280;56376;53.356;-1.748;2023-09-30T06:02:56;100261.03;;;8.67;100.00
69257;BME280;56376;53.356;-1.748;2023-09-30T06:05:22;100268.94;;;8.62;100.00
69257;BME280;56376;53.356;-1.748;2023-09-30T06:08:09;100255.97;;;8.59;100.00
69257;BME280;56376;53.356;-1.748;2023-09-30T06:10:42;100261.25;;;8.55;100.00
69257;BME280;56376;53.356;-1.748;2023-09-30T06:13:09;100269.06;;;8.53;100.00
69257;BME280;56376;53.356;-1.748;2023-09-30T06:15:37;100276.03;;;8.51;100.00
69257;BME280;56376;53.356;-1.748;2023-09-30T06:18:07;100286.56;;;8.45;100.00
69257;BME280;56376;53.356;-1.748;2023-09-30T06:20:33;100296.91;;;8.48;100.00
69257;BME280;56376;53.356;-1.748;2023-09-30T06:23:01;100309.09;;;8.46;100.00
69257;BME280;56376;53.356;-1.748;2023-09-30T06:25:27;100309.16;;;8.43;100.00
69257;BME280;56376;53.356;-1.748;2023-09-30T06:27:54;100302.25;;;8.42;100.00
69257;BME280;56376;53.356;-1.748;2023-09-30T06:30:20;100304.84;;;8.42;100.00
69257;BME280;56376;53.356;-1.748;2023-09-30T06:32:46;100305.72;;;8.41;100.00
69257;BME280;56376;53.356;-1.748;2023-09-30T06:35:12;100311.75;;;8.41;100.00
69257;BME280;56376;53.356;-1.748;2023-09-30T06:37:40;100316.97;;;8.41;100.00
69257;BME280;56376;53.356;-1.748;2023-09-30T06:40:07;100341.25;;;8.45;100.00
69257;BME280;56376;53.356;-1.748;2023-09-30T06:42:34;100338.63;;;8.45;100.00
69257;BME280;56376;53.356;-1.748;2023-09-30T06:45:00;100342.09;;;8.47;100.00
69257;BME280;56376;53.356;-1.748;2023-09-30T06:47:28;100349.84;;;8.52;100.00
69257;BME280;56376;53.356;-1.748;2023-09-30T06:49:56;100349.78;;;8.55;100.00
69257;BME280;56376;53.356;-1.748;2023-09-30T06:52:21;100347.13;;;8.58;100.00
69257;BME280;56376;53.356;-1.748;2023-09-30T06:54:47;100346.19;;;8.62;100.00
69257;BME280;56376;53.356;-1.748;2023-09-30T06:57:13;100353.91;;;8.66;100.00
69257;BME280;56376;53.356;-1.748;2023-09-30T06:59:39;100353.91;;;8.70;100.00
69257;BME280;56376;53.356;-1.748;2023-09-30T07:02:04;100340.81;;;8.73;100.00
69257;BME280;56376;53.356;-1.748;2023-09-30T07:04:30;100342.50;;;8.75;100.00
69257;BME280;56376;53.356;-1.748;2023-09-30T07:06:55;100347.66;;;8.80;100.00
69257;BME280;56376;53.356;-1.748;2023-09-30T07:09:21;100338.03;;;8.82;100.00
69257;BME280;56376;53.356;-1.748;2023-09-30T07:11:46;100341.47;;;8.87;100.00
69257;BME280;56376;53.356;-1.748;2023-09-30T07:14:14;100350.94;;;8.91;100.00
69257;BME280;56376;53.356;-1.748;2023-09-30T07:16:39;100339.66;;;8.92;100.00
69257;BME280;56376;53.356;-1.748;2023-09-30T07:19:06;100345.66;;;8.96;100.00
69257;BME280;56376;53.356;-1.748;2023-09-30T07:21:32;100341.28;;;8.96;100.00
69257;BME280;56376;53.356;-1.748;2023-09-30T07:23:57;100329.09;;;8.98;100.00
69257;BME280;56376;53.356;-1.748;2023-09-30T07:26:26;100332.50;;;9.03;100.00
69257;BME280;56376;53.356;-1.748;2023-09-30T07:28:53;100331.59;;;9.04;100.00
69257;BME280;56376;53.356;-1.748;2023-09-30T07:31:19;100332.34;;;9.11;100.00
69257;BME280;56376;53.356;-1.748;2023-09-30T07:33:45;100330.53;;;9.16;100.00
69257;BME280;56376;53.356;-1.748;2023-09-30T07:36:10;100334.75;;;9.23;100.00
69257;BME280;56376;53.356;-1.748;2023-09-30T07:38:37;100345.97;;;9.27;100.00
69257;BME280;56376;53.356;-1.748;2023-09-30T07:41:02;100339.00;;;9.29;100.00
69257;BME280;56376;53.356;-1.748;2023-09-30T07:43:28;100354.56;;;9.34;100.00
69257;BME280;56376;53.356;-1.748;2023-09-30T07:45:54;100363.13;;;9.40;100.00
69257;BME280;56376;53.356;-1.748;2023-09-30T07:48:20;100352.66;;;9.42;100.00
69257;BME280;56376;53.356;-1.748;2023-09-30T07:50:46;100359.50;;;9.49;100.00
69257;BME280;56376;53.356;-1.748;2023-09-30T07:53:12;100361.13;;;9.54;100.00
69257;BME280;56376;53.356;-1.748;2023-09-30T07:55:37;100365.31;;;9.63;100.00
69257;BME280;56376;53.356;-1.748;2023-09-30T07:58:06;100357.34;;;9.71;100.00
69257;BME280;56376;53.356;-1.748;2023-09-30T08:00:33;100367.53;;;9.83;100.00
69257;BME280;56376;53.356;-1.748;2023-09-30T08:02:59;100363.78;;;9.95;100.00
69257;BME280;56376;53.356;-1.748;2023-09-30T08:05:26;100354.09;;;10.03;100.00
69257;BME280;56376;53.356;-1.748;2023-09-30T08:07:51;100337.44;;;10.09;100.00
69257;BME280;56376;53.356;-1.748;2023-09-30T08:10:17;100338.16;;;10.15;100.00
69257;BME280;56376;53.356;-1.748;2023-09-30T08:12:42;100338.09;;;10.18;100.00
69257;BME280;56376;53.356;-1.748;2023-09-30T08:15:11;100340.56;;;10.25;100.00
69257;BME280;56376;53.356;-1.748;2023-09-30T08:17:38;100330.88;;;10.31;100.00
69257;BME280;56376;53.356;-1.748;2023-09-30T08:20:03;100335.00;;;10.42;100.00
69257;BME280;56376;53.356;-1.748;2023-09-30T08:22:29;100335.56;;;10.54;100.00
69257;BME280;56376;53.356;-1.748;2023-09-30T08:24:55;100341.44;;;10.64;100.00
69257;BME280;56376;53.356;-1.748;2023-09-30T08:27:21;100335.00;;;10.77;100.00
69257;BME280;56376;53.356;-1.748;2023-09-30T08:29:48;100335.63;;;10.89;100.00
69257;BME280;56376;53.356;-1.748;2023-09-30T08:32:14;100336.22;;;11.00;100.00
69257;BME280;56376;53.356;-1.748;2023-09-30T08:34:39;100325.44;;;11.12;100.00
69257;BME280;56376;53.356;-1.748;2023-09-30T08:37:05;100325.16;;;11.23;100.00
69257;BME280;56376;53.356;-1.748;2023-09-30T08:39:31;100319.63;;;11.34;100.00
69257;BME280;56376;53.356;-1.748;2023-09-30T08:41:56;100306.50;;;11.37;100.00
69257;BME280;56376;53.356;-1.748;2023-09-30T08:44:22;100308.81;;;11.47;100.00
69257;BME280;56376;53.356;-1.748;2023-09-30T08:46:49;100303.19;;;11.61;100.00
69257;BME280;56376;53.356;-1.748;2023-09-30T08:49:15;100311.53;;;11.74;100.00
69257;BME280;56376;53.356;-1.748;2023-09-30T08:51:40;100320.72;;;11.90;100.00
69257;BME280;56376;53.356;-1.748;2023-09-30T08:54:06;100324.78;;;12.01;100.00
69257;BME280;56376;53.356;-1.748;2023-09-30T08:56:32;100314.88;;;12.10;100.00
69257;BME280;56376;53.356;-1.748;2023-09-30T08:59:03;100307.78;;;12.14;100.00
69257;BME280;56376;53.356;-1.748;2023-09-30T09:01:30;100304.16;;;12.18;100.00
69257;BME280;56376;53.356;-1.748;2023-09-30T09:03:56;100294.44;;;12.22;100.00
69257;BME280;56376;53.356;-1.748;2023-09-30T09:06:26;100294.50;;;12.20;100.00
69257;BME280;56376;53.356;-1.748;2023-09-30T09:08:54;100303.97;;;12.24;100.00
69257;BME280;56376;53.356;-1.748;2023-09-30T09:11:37;100298.69;;;12.26;100.00
69257;BME280;56376;53.356;-1.748;2023-09-30T09:14:03;100300.41;;;12.27;100.00
69257;BME280;56376;53.356;-1.748;2023-09-30T09:16:28;100310.00;;;12.28;100.00
69257;BME280;56376;53.356;-1.748;2023-09-30T09:18:56;100308.25;;;12.27;100.00
69257;BME280;56376;53.356;-1.748;2023-09-30T09:21:22;100315.25;;;12.26;100.00
69257;BME280;56376;53.356;-1.748;2023-09-30T09:23:49;100317.88;;;12.26;100.00
69257;BME280;56376;53.356;-1.748;2023-09-30T09:26:27;100311.75;;;12.27;100.00
69257;BME280;56376;53.356;-1.748;2023-09-30T09:29:02;100309.06;;;12.29;100.00
69257;BME280;56376;53.356;-1.748;2023-09-30T09:31:30;100309.94;;;12.29;100.00
69257;BME280;56376;53.356;-1.748;2023-09-30T09:33:57;100330.81;;;12.32;100.00
69257;BME280;56376;53.356;-1.748;2023-09-30T09:36:38;100330.72;;;12.36;100.00
69257;BME280;56376;53.356;-1.748;2023-09-30T09:39:06;100320.16;;;12.37;100.00
69257;BME280;56376;53.356;-1.748;2023-09-30T09:41:31;100316.44;;;12.44;100.00
69257;BME280;56376;53.356;-1.748;2023-09-30T09:43:58;100309.28;;;12.51;100.00
69257;BME280;56376;53.356;-1.748;2023-09-30T09:46:24;100313.56;;;12.53;100.00
69257;BME280;56376;53.356;-1.748;2023-09-30T09:49:10;100323.78;;;12.61;100.00
69257;BME280;56376;53.356;-1.748;2023-09-30T09:51:37;100329.78;;;12.65;100.00
69257;BME280;56376;53.356;-1.748;2023-09-30T09:54:04;100318.41;;;12.66;100.00
69257;BME280;56376;53.356;-1.748;2023-09-30T09:56:33;100307.00;;;12.67;100.00
69257;BME280;56376;53.356;-1.748;2023-09-30T09:59:03;100306.91;;;12.70;100.00
69257;BME280;56376;53.356;-1.748;2023-09-30T10:01:30;100304.97;;;12.75;100.00
69257;BME280;56376;53.356;-1.748;2023-09-30T10:03:56;100299.66;;;12.78;100.00
69257;BME280;56376;53.356;-1.748;2023-09-30T10:06:22;100299.44;;;12.84;100.00
69257;BME280;56376;53.356;-1.748;2023-09-30T10:08:49;100295.81;;;12.88;100.00
69257;BME280;56376;53.356;-1.748;2023-09-30T10:11:19;100294.72;;;12.95;100.00
69257;BME280;56376;53.356;-1.748;2023-09-30T10:13:55;100292.00;;;12.97;100.00
69257;BME280;56376;53.356;-1.748;2023-09-30T10:19:14;100301.41;;;13.04;100.00
69257;BME280;56376;53.356;-1.748;2023-09-30T10:21:40;100291.63;;;13.08;100.00
69257;BME280;56376;53.356;-1.748;2023-09-30T10:27:28;100287.16;;;13.11;100.00
69257;BME280;56376;53.356;-1.748;2023-09-30T10:32:22;100288.00;;;13.12;100.00
69257;BME280;56376;53.356;-1.748;2023-09-30T10:34:48;100281.88;;;13.13;100.00
69257;BME280;56376;53.356;-1.748;2023-09-30T10:37:23;100267.84;;;13.14;100.00
69257;BME280;56376;53.356;-1.748;2023-09-30T10:39:53;100269.53;;;13.15;100.00
69257;BME280;56376;53.356;-1.748;2023-09-30T10:50:53;100259.13;;;13.13;100.00
69257;BME280;56376;53.356;-1.748;2023-09-30T10:53:22;100266.91;;;13.15;100.00
69257;BME280;56376;53.356;-1.748;2023-09-30T10:55:54;100269.53;;;13.15;100.00
69257;BME280;56376;53.356;-1.748;2023-09-30T10:58:21;100256.44;;;13.15;100.00
69257;BME280;56376;53.356;-1.748;2023-09-30T11:00:54;100259.00;;;13.16;100.00
69257;BME280;56376;53.356;-1.748;2023-09-30T11:03:20;100265.91;;;13.19;100.00
69257;BME280;56376;53.356;-1.748;2023-09-30T11:05:50;100250.16;;;13.19;100.00
69257;BME280;56376;53.356;-1.748;2023-09-30T11:08:17;100237.88;;;13.21;100.00
69257;BME280;56376;53.356;-1.748;2023-09-30T11:10:49;100239.53;;;13.24;100.00
69257;BME280;56376;53.356;-1.748;2023-09-30T11:13:16;100229.78;;;13.27;100.00
69257;BME280;56376;53.356;-1.748;2023-09-30T11:15:41;100229.66;;;13.30;100.00
69257;BME280;56376;53.356;-1.748;2023-09-30T11:21:11;100230.44;;;13.34;100.00
69257;BME280;56376;53.356;-1.748;2023-09-30T11:23:39;100231.97;;;13.39;100.00
69257;BME280;56376;53.356;-1.748;2023-09-30T11:26:06;100217.94;;;13.40;100.00
69257;BME280;56376;53.356;-1.748;2023-09-30T11:28:40;100217.75;;;13.45;100.00
69257;BME280;56376;53.356;-1.748;2023-09-30T11:31:11;100214.06;;;13.51;100.00
69257;BME280;56376;53.356;-1.748;2023-09-30T11:33:50;100208.59;;;13.57;100.00
69257;BME280;56376;53.356;-1.748;2023-09-30T11:36:18;100208.41;;;13.61;100.00
69257;BME280;56376;53.356;-1.748;2023-09-30T11:38:45;100195.88;;;13.68;100.00
69257;BME280;56376;53.356;-1.748;2023-09-30T11:41:15;100199.16;;;13.75;100.00
69257;BME280;56376;53.356;-1.748;2023-09-30T11:44:04;100193.66;;;13.81;100.00
69257;BME280;56376;53.356;-1.748;2023-09-30T11:46:31;100201.47;;;13.82;100.00
69257;BME280;56376;53.356;-1.748;2023-09-30T11:49:03;100198.81;;;13.84;100.00
69257;BME280;56376;53.356;-1.748;2023-09-30T11:51:29;100199.59;;;13.86;100.00
69257;BME280;56376;53.356;-1.748;2023-09-30T11:53:55;100199.59;;;13.86;100.00
69257;BME280;56376;53.356;-1.748;2023-09-30T11:56:23;100205.69;;;13.87;100.00
69257;BME280;56376;53.356;-1.748;2023-09-30T11:59:12;100202.09;;;13.89;100.00
69257;BME280;56376;53.356;-1.748;2023-09-30T12:01:37;100204.72;;;13.89;100.00
69257;BME280;56376;53.356;-1.748;2023-09-30T12:04:03;100205.56;;;13.90;100.00
69257;BME280;56376;53.356;-1.748;2023-09-30T12:06:29;100202.91;;;13.91;100.00
69257;BME280;56376;53.356;-1.748;2023-09-30T12:08:54;100195.78;;;13.93;100.00
69257;BME280;56376;53.356;-1.748;2023-09-30T12:11:20;100204.66;;;13.91;100.00
69257;BME280;56376;53.356;-1.748;2023-09-30T12:13:49;100209.91;;;13.91;100.00
69257;BME280;56376;53.356;-1.748;2023-09-30T12:16:16;100212.72;;;13.86;100.00
69257;BME280;56376;53.356;-1.748;2023-09-30T12:18:42;100203.97;;;13.85;100.00
69257;BME280;56376;53.356;-1.748;2023-09-30T12:21:09;100202.22;;;13.86;100.00
69257;BME280;56376;53.356;-1.748;2023-09-30T12:23:36;100192.50;;;13.88;100.00
69257;BME280;56376;53.356;-1.748;2023-09-30T12:26:01;100188.13;;;13.89;100.00
69257;BME280;56376;53.356;-1.748;2023-09-30T12:28:33;100194.22;;;13.89;100.00
69257;BME280;56376;53.356;-1.748;2023-09-30T12:31:00;100186.25;;;13.91;100.00
69257;BME280;56376;53.356;-1.748;2023-09-30T12:33:30;100182.78;;;13.90;100.00
69257;BME280;56376;53.356;-1.748;2023-09-30T12:35:56;100179.25;;;13.91;100.00
69257;BME280;56376;53.356;-1.748;2023-09-30T12:38:22;100179.25;;;13.91;100.00
69257;BME280;56376;53.356;-1.748;2023-09-30T12:40:47;100174.91;;;13.90;100.00
69257;BME280;56376;53.356;-1.748;2023-09-30T12:43:13;100176.63;;;13.91;100.00
69257;BME280;56376;53.356;-1.748;2023-09-30T12:45:39;100170.59;;;13.89;100.00
69257;BME280;56376;53.356;-1.748;2023-09-30T12:48:05;100184.56;;;13.90;100.00
69257;BME280;56376;53.356;-1.748;2023-09-30T12:50:30;100184.56;;;13.90;100.00
69257;BME280;56376;53.356;-1.748;2023-09-30T12:52:56;100188.97;;;13.89;100.00
69257;BME280;56376;53.356;-1.748;2023-09-30T12:55:21;100181.94;;;13.90;100.00
69257;BME280;56376;53.356;-1.748;2023-09-30T12:57:48;100176.63;;;13.91;100.00